首页
METAR-TAF:

METAR-TAF

机场 :

白原, 紐約州, 美国

纬度: 41-04-01N, 经度: 073-42-27W, 海拔: 134米

当前天气观测

该预报发布于17分钟前的01:56 UTC
风速6节,风向西
温度 21°C
湿度 46%
气压 1012 hPa
能見度: 16.1公里
多云层高于11000英尺

METAR: KHPN 310156Z 28006KT 10SM BKN110 21/09 A2989 RMK AO2 SLP117 T02110094

时间: 22:13 (02:13 UTC)

预报

该预报发布于2小时和42分钟前的23:31 UTC
预报有效从31日的 00点(UTC)到 31日的 24点(UTC)
风速7节,风向西
能見度: 10公里
散云层高于8000英尺
多云层高于10000英尺
从 31日的 0300点(UTC)
风速11节,风向西北,有时为18节阵风
能見度: 10公里
散云层高于8000英尺
散云层高于25000英尺
从 31日的 1200点(UTC)
风速15节,风向西北,有时为22节阵风
能見度: 10公里
少量云层高于5000英尺
从 31日的 1700点(UTC)
风速13节,风向西北,有时为18节阵风
能見度: 10公里
少量云层高于5000英尺

TAF: KHPN 302331Z 3100/3124 28007KT P6SM SCT080 BKN100 FM310300 32011G18KT P6SM SCT080 SCT250 FM311200 32015G22KT P6SM FEW050 FM311700 32013G18KT P6SM FEW050 AMD NOT SKED

超过4000个机场的气象观测和天气预报(METAR&TAF报告)。

可查询的气象台以黄色和红色小点在地图上表示。

将鼠标移到小点上方,可查看气象台名称。

然后点击查看天气观测和预报。

如需切换地图:点击带黑十字的绿色按钮放大地图;点击带横线的绿色按钮缩小地图;或者点击绿色箭头查看邻近地区的地图。


METAR-TAF: